Terminal Aerodrome Forecast
Issued by NWS

Home | Current Version | Previous Version | Text Only | Print | Product List | Glossary On
Versions: 1 2 3 4 5 6 7 8 9 10 11 12 13 14 15 16 17 18 19 20 21 22 23 24
000
FTUS41 KBOX 280521
TAFHYA
TAF
KHYA 280521Z 2806/2906 25007KT P6SM BKN060
     FM281100 34007KT P6SM SCT250
     FM281700 36011G20KT P6SM FEW050
     FM282300 35009KT P6SM SKC=

USA.gov is the U.S. government's official web portal to all federal, state and local government web resources and services.